Time;durP1;ratioP1;P1;durP2;ratioP2;P2;SDS_P1;SDS_P2;PMS_P1;PMS_P2;Temp;Humidity;BMP_temperature;BMP_pressure;BME280_temperature;BME280_humidity;BME280_pressure;Samples;Min_cycle;Max_cycle;Signal;HPM_P1;HPM_P2
2022/03/02 00:00:06;;;;;;;16.80;10.87;;;2.50;93.70;;;;;;5090506;28;20878;-75
2022/03/02 00:02:31;;;;;;;17.20;10.57;;;2.50;93.70;;;;;;5098673;28;20200;-79
2022/03/02 00:04:57;;;;;;;15.50;11.07;;;2.60;93.50;;;;;;5085061;28;20196;-79
2022/03/02 00:07:22;;;;;;;14.97;10.57;;;2.60;93.10;;;;;;5097712;28;20242;-79
2022/03/02 00:09:48;;;;;;;18.57;12.47;;;2.60;93.30;;;;;;5091672;28;20231;-73
2022/03/02 00:12:13;;;;;;;15.77;10.57;;;2.60;93.50;;;;;;5085618;28;20291;-69
2022/03/02 00:14:38;;;;;;;16.10;10.23;;;2.60;93.70;;;;;;5092590;28;20197;-72
2022/03/02 00:17:04;;;;;;;17.23;11.10;;;2.60;93.80;;;;;;5088486;28;20197;-75
2022/03/02 00:19:30;;;;;;;18.47;10.47;;;2.60;94.00;;;;;;5089179;28;20224;-74
2022/03/02 00:21:55;;;;;;;13.20;9.87;;;2.70;94.20;;;;;;5087145;28;20198;-75
2022/03/02 00:24:21;;;;;;;17.50;11.20;;;2.70;94.00;;;;;;5093607;28;20846;-73
2022/03/02 00:26:47;;;;;;;16.03;10.83;;;2.70;94.00;;;;;;5091209;28;20205;-73
2022/03/02 00:29:12;;;;;;;14.93;10.60;;;2.80;93.60;;;;;;5095622;28;20240;-71
2022/03/02 00:31:38;;;;;;;17.10;11.53;;;2.70;93.70;;;;;;5090904;28;20208;-76
2022/03/02 00:34:03;;;;;;;15.40;10.33;;;2.80;94.20;;;;;;5094434;28;20268;-75
2022/03/02 00:36:29;;;;;;;16.20;11.00;;;2.70;94.20;;;;;;5092075;28;20254;-77
2022/03/02 00:38:54;;;;;;;21.93;11.27;;;2.80;94.60;;;;;;5096109;28;20496;-74
2022/03/02 00:41:20;;;;;;;13.07;10.07;;;2.90;95.90;;;;;;5094526;28;20569;-72
2022/03/02 00:43:47;;;;;;;16.27;10.60;;;2.90;95.30;;;;;;5096977;28;20197;-73
2022/03/02 00:46:13;;;;;;;23.40;10.77;;;2.90;95.30;;;;;;5092741;28;20213;-83
2022/03/02 00:48:39;;;;;;;16.90;10.93;;;2.90;94.20;;;;;;5097331;28;20220;-76
2022/03/02 00:51:05;;;;;;;16.17;10.50;;;2.80;94.90;;;;;;5097690;28;20198;-71
2022/03/02 00:53:31;;;;;;;14.40;10.33;;;2.80;95.20;;;;;;5099305;28;20671;-78
2022/03/02 00:55:56;;;;;;;17.60;10.33;;;2.80;95.30;;;;;;5104375;28;20204;-72
2022/03/02 00:58:22;;;;;;;17.03;10.13;;;2.70;95.10;;;;;;5097928;28;20655;-72
2022/03/02 01:00:47;;;;;;;17.83;10.13;;;2.70;95.40;;;;;;5095742;28;20734;-76
2022/03/02 01:03:13;;;;;;;16.83;10.07;;;2.80;94.90;;;;;;5099555;28;20213;-78
2022/03/02 01:05:39;;;;;;;14.73;10.50;;;2.70;95.20;;;;;;5096144;28;20197;-78
2022/03/02 01:08:05;;;;;;;13.00;9.53;;;2.60;95.00;;;;;;5096701;28;20223;-78
2022/03/02 01:10:31;;;;;;;14.30;10.57;;;2.60;95.10;;;;;;5091075;28;20208;-78
2022/03/02 01:12:57;;;;;;;18.40;10.90;;;2.60;95.10;;;;;;5097083;28;20181;-83
2022/03/02 01:15:22;;;;;;;14.00;10.20;;;2.50;95.80;;;;;;5099758;28;20194;-70
2022/03/02 01:17:48;;;;;;;15.37;10.53;;;2.50;95.70;;;;;;5096129;28;20622;-75
2022/03/02 01:20:13;;;;;;;16.30;11.60;;;2.50;95.60;;;;;;5087756;28;20249;-74
2022/03/02 01:22:39;;;;;;;15.67;10.97;;;2.50;95.70;;;;;;5092074;28;20694;-75
2022/03/02 01:25:06;;;;;;;15.37;11.13;;;2.60;96.30;;;;;;5099911;28;20300;-75
2022/03/02 01:27:31;;;;;;;14.53;10.30;;;2.60;96.20;;;;;;5104232;28;20676;-78
2022/03/02 01:29:57;;;;;;;15.40;10.37;;;2.70;95.70;;;;;;5100001;28;20291;-76
2022/03/02 01:32:23;;;;;;;14.73;12.10;;;2.60;95.50;;;;;;5099937;28;20226;-73
2022/03/02 01:34:48;;;;;;;14.07;11.00;;;2.70;96.00;;;;;;5091583;28;20216;-72
2022/03/02 01:37:14;;;;;;;16.80;10.90;;;2.60;96.20;;;;;;5088516;28;20193;-76
2022/03/02 01:39:40;;;;;;;16.67;11.97;;;2.60;96.60;;;;;;5103299;28;20200;-78
2022/03/02 01:42:06;;;;;;;15.87;11.07;;;2.60;97.10;;;;;;5094830;28;20188;-70
2022/03/02 01:44:33;;;;;;;16.17;11.17;;;2.60;96.40;;;;;;5088688;28;20255;-72
2022/03/02 01:46:58;;;;;;;17.03;11.90;;;2.60;96.70;;;;;;5092732;28;20716;-73
2022/03/02 01:49:24;;;;;;;16.33;11.83;;;2.50;97.20;;;;;;5085910;28;20213;-72
2022/03/02 01:51:49;;;;;;;17.53;11.67;;;2.50;96.90;;;;;;5093651;28;20337;-75
2022/03/02 01:54:15;;;;;;;16.07;10.63;;;2.40;97.10;;;;;;5089346;28;20208;-77
2022/03/02 01:56:41;;;;;;;18.93;10.93;;;2.40;97.90;;;;;;5094647;28;20740;-73
2022/03/02 01:59:06;;;;;;;18.83;11.90;;;2.50;98.50;;;;;;5085950;28;20202;-71
2022/03/02 02:01:32;;;;;;;16.33;10.63;;;2.50;98.40;;;;;;5096407;28;20277;-77
2022/03/02 02:03:59;;;;;;;15.57;11.27;;;2.60;98.30;;;;;;5085305;28;20198;-77
2022/03/02 02:06:24;;;;;;;19.50;13.70;;;2.50;98.50;;;;;;5099763;28;20212;-76
2022/03/02 02:08:52;;;;;;;16.83;11.00;;;2.50;98.30;;;;;;5102094;28;20570;-69
2022/03/02 02:11:18;;;;;;;15.63;12.07;;;2.60;98.20;;;;;;5087202;28;20221;-72
2022/03/02 02:13:43;;;;;;;16.73;11.13;;;2.60;97.90;;;;;;5093673;28;20197;-67
2022/03/02 02:16:09;;;;;;;19.87;12.57;;;2.70;98.50;;;;;;5093456;28;20208;-70
2022/03/02 02:18:35;;;;;;;19.03;11.23;;;2.80;98.10;;;;;;5093841;28;20593;-69
2022/03/02 02:21:10;;;;;;;20.63;11.87;;;2.80;98.20;;;;;;5095224;28;20204;-69
2022/03/02 02:23:37;;;;;;;15.47;10.13;;;2.70;98.30;;;;;;5080879;28;20607;-69
2022/03/02 02:26:04;;;;;;;19.03;11.40;;;2.70;98.40;;;;;;5103869;28;20246;-69
2022/03/02 02:28:32;;;;;;;16.73;11.97;;;2.70;98.50;;;;;;5094056;28;20319;-68
2022/03/02 02:30:59;;;;;;;14.93;11.50;;;2.50;98.20;;;;;;5093888;28;20673;-68
2022/03/02 02:33:26;;;;;;;21.57;12.30;;;2.50;98.70;;;;;;5095016;28;20277;-69
2022/03/02 02:35:51;;;;;;;16.63;12.10;;;2.60;98.30;;;;;;5103790;28;20181;-69
2022/03/02 02:38:18;;;;;;;16.70;11.47;;;2.50;98.70;;;;;;5090808;28;20293;-69
2022/03/02 02:40:44;;;;;;;15.67;11.57;;;2.40;99.00;;;;;;5094321;28;20658;-70
2022/03/02 02:43:10;;;;;;;20.60;12.23;;;2.50;99.80;;;;;;5090029;28;20197;-70
2022/03/02 02:45:35;;;;;;;17.07;11.27;;;2.50;99.30;;;;;;5097923;28;20997;-71
2022/03/02 02:48:01;;;;;;;20.63;11.43;;;2.50;99.40;;;;;;5088155;28;20212;-70
2022/03/02 02:50:30;;;;;;;21.37;12.10;;;2.60;98.70;;;;;;5093968;28;20182;-71
2022/03/02 02:52:57;;;;;;;18.83;12.70;;;2.70;98.50;;;;;;5098959;28;20734;-70
2022/03/02 02:55:27;;;;;;;17.37;11.33;;;2.60;98.70;;;;;;5099034;28;20184;-70
2022/03/02 02:57:54;;;;;;;18.77;12.67;;;2.60;98.90;;;;;;5096666;28;20656;-70
2022/03/02 03:00:22;;;;;;;16.03;12.53;;;2.70;98.80;;;;;;5094480;28;20240;-70
2022/03/02 03:02:50;;;;;;;18.23;11.93;;;2.70;99.60;;;;;;5094648;28;20261;-70
2022/03/02 03:05:21;;;;;;;16.93;11.80;;;2.60;99.20;;;;;;5093788;28;20185;-70
2022/03/02 03:07:47;;;;;;;17.63;12.80;;;2.50;99.40;;;;;;5086292;28;20212;-70
2022/03/02 03:10:14;;;;;;;15.70;11.73;;;2.40;99.40;;;;;;5097650;28;20276;-70
2022/03/02 03:12:42;;;;;;;21.83;13.77;;;2.30;99.40;;;;;;5098952;28;20193;-69
2022/03/02 03:15:09;;;;;;;19.57;12.40;;;2.30;99.70;;;;;;5086021;28;20193;-69
2022/03/02 03:17:35;;;;;;;20.67;12.63;;;2.30;99.90;;;;;;5102315;28;20204;-70
2022/03/02 03:20:01;;;;;;;21.70;12.40;;;2.00;99.90;;;;;;5100198;28;20232;-70
2022/03/02 03:22:27;;;;;;;18.50;13.37;;;2.00;99.90;;;;;;5102941;28;20203;-70
2022/03/02 03:24:53;;;;;;;20.23;13.63;;;1.90;99.90;;;;;;5098268;28;20220;-69
2022/03/02 03:27:18;;;;;;;24.37;13.90;;;1.80;99.90;;;;;;5097504;28;20200;-68
2022/03/02 03:29:44;;;;;;;18.50;12.53;;;1.90;99.90;;;;;;5087607;28;20681;-68
2022/03/02 03:32:09;;;;;;;20.90;13.80;;;2.10;99.90;;;;;;5085467;28;20208;-68
2022/03/02 03:34:35;;;;;;;19.80;12.23;;;2.20;99.90;;;;;;5085839;28;20193;-68
2022/03/02 03:37:00;;;;;;;21.40;13.50;;;2.10;99.90;;;;;;5099078;28;20754;-68
2022/03/02 03:39:26;;;;;;;22.93;13.70;;;2.00;99.90;;;;;;5097904;28;20204;-69
2022/03/02 03:41:52;;;;;;;22.20;13.20;;;2.00;99.90;;;;;;5099282;28;20628;-68
2022/03/02 03:44:17;;;;;;;21.87;12.23;;;1.90;99.90;;;;;;5093262;28;20555;-69
2022/03/02 03:46:43;;;;;;;19.13;12.53;;;2.00;99.90;;;;;;5095470;28;20432;-67
2022/03/02 03:49:09;;;;;;;17.87;12.57;;;2.20;99.90;;;;;;5103123;28;20212;-68
2022/03/02 03:51:35;;;;;;;23.47;13.67;;;2.30;99.90;;;;;;5091283;28;20184;-68
2022/03/02 03:54:01;;;;;;;21.30;12.87;;;2.30;99.90;;;;;;5090655;28;20250;-68
2022/03/02 03:56:28;;;;;;;18.83;12.43;;;2.20;99.90;;;;;;5093988;28;20207;-69
2022/03/02 03:58:54;;;;;;;18.13;12.40;;;2.10;99.90;;;;;;5088298;28;20291;-69
2022/03/02 04:01:19;;;;;;;19.90;13.07;;;2.10;99.90;;;;;;5091623;28;20201;-69
2022/03/02 04:03:45;;;;;;;17.13;13.00;;;2.00;99.90;;;;;;5092702;28;20212;-69
2022/03/02 04:06:10;;;;;;;17.53;12.77;;;1.90;99.90;;;;;;5089617;28;20209;-71
2022/03/02 04:08:35;;;;;;;17.30;12.77;;;1.80;99.90;;;;;;5097041;28;20199;-70
2022/03/02 04:11:01;;;;;;;23.93;13.43;;;1.80;99.90;;;;;;5097495;28;20865;-66
2022/03/02 04:13:27;;;;;;;17.10;12.57;;;2.00;99.90;;;;;;5095601;28;20207;-74
2022/03/02 04:15:52;;;;;;;21.43;14.37;;;2.00;99.90;;;;;;5097705;28;20201;-74
2022/03/02 04:18:18;;;;;;;23.20;14.50;;;2.00;99.90;;;;;;5093347;28;20289;-72
2022/03/02 04:20:43;;;;;;;18.97;13.63;;;2.00;99.90;;;;;;5098315;28;20825;-71
2022/03/02 04:23:09;;;;;;;18.60;12.97;;;1.90;99.90;;;;;;5098658;28;20192;-72
2022/03/02 04:25:34;;;;;;;22.20;13.67;;;1.80;99.90;;;;;;5099356;28;20668;-70
2022/03/02 04:28:00;;;;;;;21.93;14.97;;;1.70;99.90;;;;;;5104644;28;20583;-70
2022/03/02 04:30:27;;;;;;;26.53;14.30;;;1.70;99.90;;;;;;5097968;28;20210;-74
2022/03/02 04:32:53;;;;;;;22.20;12.37;;;1.70;99.90;;;;;;5100998;28;20617;-75
2022/03/02 04:35:19;;;;;;;21.07;13.80;;;1.80;99.90;;;;;;5101448;28;20280;-73
2022/03/02 04:37:44;;;;;;;16.13;12.70;;;1.80;99.90;;;;;;5096075;28;20251;-73
2022/03/02 04:40:12;;;;;;;21.90;13.57;;;1.80;99.90;;;;;;5106785;28;20298;-73
2022/03/02 04:42:37;;;;;;;22.60;13.30;;;1.90;99.90;;;;;;5094168;28;20565;-72
2022/03/02 04:45:04;;;;;;;22.30;14.70;;;1.90;99.90;;;;;;5094727;28;20197;-72
2022/03/02 04:47:29;;;;;;;22.03;14.03;;;1.90;99.90;;;;;;5088463;28;20237;-71
2022/03/02 04:49:55;;;;;;;20.40;12.57;;;1.80;99.90;;;;;;5094107;28;20223;-71
2022/03/02 04:52:21;;;;;;;18.73;12.03;;;1.70;99.90;;;;;;5092393;28;20197;-70
2022/03/02 04:57:32;;;;;;;19.63;13.30;;;1.80;99.90;;;;;;5089792;28;20215;-70
2022/03/02 04:59:57;;;;;;;20.43;12.40;;;1.70;99.90;;;;;;5106443;28;20189;-70
2022/03/02 05:02:23;;;;;;;21.27;12.70;;;1.60;99.90;;;;;;5087776;28;20197;-70
2022/03/02 05:04:49;;;;;;;21.43;13.63;;;1.50;99.90;;;;;;5093063;28;20690;-70
2022/03/02 05:07:15;;;;;;;26.63;15.50;;;1.50;99.90;;;;;;5091185;28;20192;-69
2022/03/02 05:09:42;;;;;;;21.10;13.13;;;1.50;99.90;;;;;;5104266;28;20532;-70
2022/03/02 05:12:08;;;;;;;20.13;14.30;;;1.50;99.90;;;;;;5094273;28;20205;-70
2022/03/02 05:14:33;;;;;;;19.27;12.87;;;1.50;99.90;;;;;;5094587;28;20674;-70
2022/03/02 05:16:59;;;;;;;24.37;13.13;;;1.50;99.90;;;;;;5085683;28;20345;-70
2022/03/02 05:19:25;;;;;;;18.80;14.03;;;1.60;99.90;;;;;;5098092;28;20309;-70
2022/03/02 05:21:51;;;;;;;24.73;15.10;;;1.60;99.90;;;;;;5087881;28;20669;-70
2022/03/02 05:24:17;;;;;;;22.47;14.87;;;1.60;99.90;;;;;;5099981;28;20227;-71
2022/03/02 05:26:42;;;;;;;21.50;13.60;;;1.50;99.90;;;;;;5102279;28;20209;-70
2022/03/02 05:29:08;;;;;;;18.87;13.73;;;1.50;99.90;;;;;;5107762;28;20206;-70
2022/03/02 05:31:34;;;;;;;26.60;15.57;;;1.40;99.90;;;;;;5095742;28;20209;-70
2022/03/02 05:34:00;;;;;;;21.43;14.13;;;1.50;99.90;;;;;;5087637;28;20777;-70
2022/03/02 05:36:26;;;;;;;16.67;13.03;;;1.50;99.90;;;;;;5085559;28;20380;-70
2022/03/02 05:38:52;;;;;;;21.80;14.77;;;1.60;99.90;;;;;;5087785;28;20254;-69
2022/03/02 05:41:18;;;;;;;23.27;14.33;;;1.60;99.90;;;;;;5097261;28;20211;-70
2022/03/02 05:43:44;;;;;;;20.80;15.27;;;1.60;99.90;;;;;;5099121;28;20192;-80
2022/03/02 05:46:10;;;;;;;25.40;14.07;;;1.50;99.90;;;;;;5095417;28;20569;-71
2022/03/02 05:48:36;;;;;;;19.70;15.23;;;1.50;99.90;;;;;;5101975;28;20200;-70
2022/03/02 05:51:01;;;;;;;21.80;14.20;;;1.60;99.90;;;;;;5099537;28;20776;-68
2022/03/02 05:53:27;;;;;;;21.23;14.00;;;1.70;99.90;;;;;;5100189;28;20187;-68
2022/03/02 05:55:52;;;;;;;21.83;15.43;;;1.80;99.90;;;;;;5089666;28;20196;-68
2022/03/02 05:58:18;;;;;;;23.50;14.90;;;1.90;99.90;;;;;;5099866;28;20296;-69
2022/03/02 06:00:43;;;;;;;27.63;14.30;;;1.90;99.90;;;;;;5094425;28;20651;-70
2022/03/02 06:03:09;;;;;;;21.77;14.83;;;1.90;99.90;;;;;;5098262;28;20204;-74
2022/03/02 06:05:35;;;;;;;26.53;14.00;;;2.00;99.90;;;;;;5099107;28;20233;-69
2022/03/02 06:08:00;;;;;;;26.57;15.37;;;2.10;99.90;;;;;;5088409;28;20560;-69
2022/03/02 06:10:26;;;;;;;22.60;14.63;;;2.10;99.90;;;;;;5089970;28;20190;-69
2022/03/02 06:12:52;;;;;;;26.80;15.93;;;2.20;99.90;;;;;;5089662;28;20251;-69
2022/03/02 06:15:17;;;;;;;25.93;15.60;;;2.20;99.90;;;;;;5088835;28;20189;-69
2022/03/02 06:17:43;;;;;;;22.17;15.43;;;2.20;99.90;;;;;;5085092;28;20205;-71
2022/03/02 06:20:10;;;;;;;25.07;16.93;;;2.30;99.90;;;;;;5102325;28;20232;-69
2022/03/02 06:22:36;;;;;;;29.10;17.00;;;2.20;99.90;;;;;;5091876;28;20761;-71
2022/03/02 06:25:02;;;;;;;25.63;15.33;;;2.10;99.90;;;;;;5103952;28;20218;-69
2022/03/02 06:27:27;;;;;;;24.17;15.37;;;2.00;99.90;;;;;;5101569;28;20204;-69
2022/03/02 06:29:53;;;;;;;25.50;17.53;;;2.00;99.90;;;;;;5100213;28;20655;-73
2022/03/02 06:32:18;;;;;;;27.97;16.93;;;2.00;99.90;;;;;;5096198;28;20197;-73
2022/03/02 06:34:44;;;;;;;22.37;17.50;;;2.10;99.90;;;;;;5100288;28;20556;-73
2022/03/02 06:37:09;;;;;;;23.80;16.23;;;2.20;99.90;;;;;;5087322;28;20224;-73
2022/03/02 06:39:35;;;;;;;27.63;17.33;;;2.30;99.90;;;;;;5101348;28;20247;-72
2022/03/02 06:42:23;;;;;;;26.13;17.20;;;2.40;99.90;;;;;;5096546;28;20199;-73
2022/03/02 06:44:55;;;;;;;29.33;16.13;;;2.40;99.90;;;;;;5099796;28;20192;-73
2022/03/02 06:47:27;;;;;;;25.33;16.47;;;2.40;99.90;;;;;;5091744;28;20701;-72
2022/03/02 06:50:06;;;;;;;25.37;16.07;;;2.40;99.90;;;;;;5098755;28;20593;-75
2022/03/02 06:52:41;;;;;;;32.47;17.70;;;2.40;99.90;;;;;;5082024;28;20690;-75
2022/03/02 06:55:10;;;;;;;27.47;16.57;;;2.50;99.90;;;;;;5096499;28;20223;-75
2022/03/02 06:57:36;;;;;;;27.53;16.97;;;2.50;99.90;;;;;;5089769;28;20284;-75
2022/03/02 07:00:08;;;;;;;21.57;15.87;;;2.60;99.90;;;;;;5096579;28;20184;-75
2022/03/02 07:02:39;;;;;;;28.33;16.63;;;2.70;99.90;;;;;;5090074;28;20208;-72
2022/03/02 07:05:07;;;;;;;25.70;18.07;;;2.70;99.90;;;;;;5095171;28;20547;-71
2022/03/02 07:07:34;;;;;;;24.50;16.73;;;2.70;99.80;;;;;;5086903;28;20701;-71
2022/03/02 07:10:00;;;;;;;26.67;17.43;;;2.70;99.80;;;;;;5097231;28;20296;-73
2022/03/02 07:12:27;;;;;;;25.30;16.60;;;2.70;99.60;;;;;;5089606;28;20204;-73
2022/03/02 07:14:54;;;;;;;30.93;18.43;;;2.80;99.40;;;;;;5095039;28;20189;-68
2022/03/02 07:17:21;;;;;;;30.53;16.87;;;2.80;99.60;;;;;;5088036;28;20298;-71
2022/03/02 07:19:47;;;;;;;29.13;18.03;;;2.90;99.20;;;;;;5087785;28;20311;-71
2022/03/02 07:22:18;;;;;;;27.13;18.00;;;3.00;99.10;;;;;;5094874;28;20335;-73
2022/03/02 07:24:53;;;;;;;27.37;19.43;;;3.00;98.90;;;;;;5101330;28;20209;-70
2022/03/02 07:27:19;;;;;;;25.47;17.97;;;3.00;99.20;;;;;;5093248;28;20245;-68
2022/03/02 07:29:47;;;;;;;28.93;18.50;;;2.90;99.00;;;;;;5095515;28;20278;-68
2022/03/02 07:32:15;;;;;;;30.73;18.53;;;2.90;99.20;;;;;;5096844;28;20242;-71
2022/03/02 07:34:42;;;;;;;34.37;18.83;;;3.10;99.40;;;;;;5095338;28;20201;-68
2022/03/02 07:37:09;;;;;;;27.07;16.40;;;3.10;98.60;;;;;;5096432;28;20181;-68
2022/03/02 07:39:35;;;;;;;19.93;16.53;;;3.10;98.50;;;;;;5095813;28;20192;-69
2022/03/02 07:42:02;;;;;;;33.10;18.37;;;3.10;98.70;;;;;;5099662;28;20234;-69
2022/03/02 07:44:28;;;;;;;26.70;17.63;;;3.20;98.80;;;;;;5099684;28;20815;-69
2022/03/02 07:46:54;;;;;;;25.40;18.17;;;3.00;98.70;;;;;;5094469;28;20250;-70
2022/03/02 07:49:20;;;;;;;27.47;18.70;;;3.10;98.70;;;;;;5086172;28;20220;-69
2022/03/02 07:51:48;;;;;;;26.50;17.57;;;3.20;98.40;;;;;;5091714;28;20181;-69
2022/03/02 07:54:15;;;;;;;28.37;18.30;;;3.10;98.90;;;;;;5095910;28;20635;-69
2022/03/02 07:56:40;;;;;;;28.10;19.07;;;3.10;98.30;;;;;;5090168;28;20201;-74
2022/03/02 07:59:07;;;;;;;27.67;17.93;;;3.20;98.40;;;;;;5094592;28;20208;-73
2022/03/02 08:01:35;;;;;;;28.07;18.80;;;3.10;98.40;;;;;;5089346;28;20248;-73
2022/03/02 08:04:04;;;;;;;27.43;18.80;;;3.00;98.60;;;;;;5090505;28;20197;-72
2022/03/02 08:06:31;;;;;;;28.83;18.93;;;3.00;99.00;;;;;;5091762;28;20217;-72
2022/03/02 08:08:58;;;;;;;28.47;18.20;;;3.10;98.80;;;;;;5098384;28;20216;-72
2022/03/02 08:11:24;;;;;;;29.47;19.47;;;3.00;98.30;;;;;;5088083;28;20732;-71
2022/03/02 08:13:49;;;;;;;30.37;18.97;;;3.10;98.40;;;;;;5093297;28;20283;-71
2022/03/02 08:16:15;;;;;;;28.57;18.70;;;3.20;98.30;;;;;;5083572;28;20296;-72
2022/03/02 08:18:40;;;;;;;30.50;18.27;;;3.10;98.60;;;;;;5093106;28;20220;-71
2022/03/02 08:21:08;;;;;;;26.83;17.30;;;3.00;98.80;;;;;;5089692;28;20209;-71
2022/03/02 08:23:41;;;;;;;27.20;19.33;;;3.20;98.90;;;;;;5092373;28;20654;-71
2022/03/02 08:26:07;;;;;;;35.50;18.20;;;3.30;98.20;;;;;;5087204;28;20220;-70
2022/03/02 08:28:35;;;;;;;28.43;18.07;;;3.50;98.00;;;;;;5095818;28;20217;-72
2022/03/02 08:31:00;;;;;;;26.13;18.37;;;3.60;98.10;;;;;;5083263;28;20498;-71
2022/03/02 08:33:31;;;;;;;29.63;17.53;;;3.60;97.50;;;;;;5089811;28;20189;-71
2022/03/02 08:35:57;;;;;;;23.67;16.23;;;3.50;97.50;;;;;;5085468;28;20290;-70
2022/03/02 08:38:24;;;;;;;27.93;17.80;;;3.60;97.60;;;;;;5090011;28;20276;-70
2022/03/02 08:40:50;;;;;;;29.70;18.27;;;3.50;97.50;;;;;;5083105;28;20205;-69
2022/03/02 08:43:16;;;;;;;29.07;18.27;;;3.70;97.20;;;;;;5088808;28;20383;-69
2022/03/02 08:45:47;;;;;;;25.57;17.67;;;3.70;97.10;;;;;;5083221;28;20197;-69
2022/03/02 08:48:16;;;;;;;28.37;16.80;;;3.70;96.60;;;;;;5097041;28;20647;-69
2022/03/02 08:50:43;;;;;;;30.07;19.10;;;3.60;97.10;;;;;;5085547;28;20284;-69
2022/03/02 08:53:12;;;;;;;27.53;18.87;;;3.80;97.10;;;;;;5091863;28;20193;-69
2022/03/02 08:55:39;;;;;;;24.10;17.83;;;3.90;96.70;;;;;;5093584;28;20894;-69
2022/03/02 08:58:04;;;;;;;27.93;17.63;;;3.90;96.80;;;;;;5100715;28;20254;-70
2022/03/02 09:00:31;;;;;;;26.17;17.27;;;4.10;96.10;;;;;;5095193;28;20205;-73
2022/03/02 09:02:59;;;;;;;26.90;17.13;;;4.10;96.10;;;;;;5100371;28;20734;-73
2022/03/02 09:05:27;;;;;;;22.97;16.13;;;4.20;95.80;;;;;;5094836;28;20232;-74
2022/03/02 09:07:54;;;;;;;27.93;17.57;;;4.30;95.50;;;;;;5092399;28;20743;-69
2022/03/02 09:10:19;;;;;;;29.90;18.83;;;4.40;95.20;;;;;;5097203;28;20658;-69
2022/03/02 09:12:45;;;;;;;25.00;16.37;;;4.60;94.90;;;;;;5088257;28;20201;-72
2022/03/02 09:15:11;;;;;;;25.37;15.83;;;4.50;94.50;;;;;;5085759;28;20223;-71
2022/03/02 09:17:39;;;;;;;21.57;16.57;;;4.60;94.20;;;;;;5099910;28;20210;-72
2022/03/02 09:20:07;;;;;;;22.67;16.27;;;4.60;93.60;;;;;;5098056;28;20228;-72
2022/03/02 09:22:36;;;;;;;24.50;16.07;;;4.60;93.40;;;;;;5099933;28;20234;-71
2022/03/02 09:25:02;;;;;;;24.90;17.33;;;4.80;93.20;;;;;;5098263;28;20286;-71
2022/03/02 09:27:30;;;;;;;25.47;15.90;;;4.90;92.50;;;;;;5100349;28;20205;-71
2022/03/02 09:30:00;;;;;;;26.07;17.23;;;5.00;92.10;;;;;;5099167;28;20192;-71
2022/03/02 09:32:27;;;;;;;19.23;14.40;;;5.00;91.60;;;;;;5086333;28;20197;-70
2022/03/02 09:35:00;;;;;;;24.57;15.27;;;5.10;90.00;;;;;;5094814;28;20197;-71
2022/03/02 09:37:27;;;;;;;22.43;14.63;;;5.00;90.40;;;;;;5100053;28;20188;-71
2022/03/02 09:39:53;;;;;;;20.60;13.83;;;5.10;91.30;;;;;;5101021;28;20212;-72
2022/03/02 09:42:26;;;;;;;22.97;15.40;;;5.10;88.80;;;;;;5101020;28;20227;-71
2022/03/02 09:45:09;;;;;;;19.90;13.77;;;5.30;89.80;;;;;;5092668;28;20197;-71
2022/03/02 09:47:53;;;;;;;26.70;14.07;;;5.40;88.80;;;;;;5093264;28;20697;-70
2022/03/02 09:50:20;;;;;;;19.47;14.80;;;5.50;86.90;;;;;;5099741;28;20260;-71
2022/03/02 09:52:47;;;;;;;23.60;14.43;;;5.60;87.00;;;;;;5099688;28;20207;-71
2022/03/02 09:55:15;;;;;;;20.80;14.10;;;5.50;85.60;;;;;;5097127;28;20180;-72
2022/03/02 09:57:47;;;;;;;20.90;14.30;;;5.50;85.20;;;;;;5102989;28;20189;-71
2022/03/02 10:00:15;;;;;;;27.80;16.33;;;5.70;86.60;;;;;;5095125;28;20189;-70
2022/03/02 10:02:46;;;;;;;23.00;15.30;;;5.60;85.20;;;;;;5102728;28;20192;-71
2022/03/02 10:05:16;;;;;;;23.17;15.03;;;5.80;87.70;;;;;;5094303;28;20285;-71
2022/03/02 10:08:02;;;;;;;32.50;18.23;;;6.00;86.30;;;;;;5094463;28;20189;-70
2022/03/02 10:10:33;;;;;;;21.70;15.77;;;6.00;85.30;;;;;;5103693;28;20594;-69
2022/03/02 10:13:02;;;;;;;23.60;15.27;;;5.90;85.10;;;;;;5097208;28;20188;-77
2022/03/02 10:15:29;;;;;;;22.63;14.87;;;6.00;86.60;;;;;;5094080;28;20199;-70
2022/03/02 10:17:57;;;;;;;23.27;14.83;;;6.10;82.30;;;;;;5106975;28;20211;-70
2022/03/02 10:20:28;;;;;;;21.60;14.60;;;6.40;85.00;;;;;;5094547;28;20229;-72
2022/03/02 10:23:21;;;;;;;19.70;14.23;;;6.60;84.20;;;;;;5092172;28;20181;-69
2022/03/02 10:26:08;;;;;;;22.13;14.67;;;6.90;83.30;;;;;;5098999;28;20291;-67
2022/03/02 10:28:53;;;;;;;21.10;15.50;;;7.00;79.20;;;;;;5103116;28;20212;-70
2022/03/02 10:31:30;;;;;;;23.73;13.80;;;7.20;78.50;;;;;;5075376;28;20201;-72
2022/03/02 10:34:01;;;;;;;26.73;14.30;;;7.30;76.90;;;;;;5091758;28;20226;-71
2022/03/02 10:36:29;;;;;;;20.40;13.43;;;7.30;74.70;;;;;;5079337;28;20213;-69
2022/03/02 10:38:57;;;;;;;20.13;12.80;;;7.50;76.10;;;;;;5103274;28;20201;-71
2022/03/02 10:41:45;;;;;;;21.73;13.83;;;7.70;71.80;;;;;;5084728;28;20198;-70
2022/03/02 10:44:25;;;;;;;20.23;14.03;;;7.60;73.80;;;;;;5080592;28;20189;-76
2022/03/02 10:47:01;;;;;;;18.77;13.20;;;7.70;72.80;;;;;;5087474;28;20572;-72
2022/03/02 10:49:29;;;;;;;23.00;14.63;;;7.80;70.80;;;;;;5075388;28;20221;-72
2022/03/02 10:51:56;;;;;;;19.07;13.03;;;7.70;69.40;;;;;;5090491;28;20279;-72
2022/03/02 10:54:24;;;;;;;20.60;13.50;;;7.80;70.10;;;;;;5086652;28;20561;-73
2022/03/02 10:56:54;;;;;;;16.47;10.40;;;8.00;68.80;;;;;;5096013;28;20189;-72
2022/03/02 10:59:22;;;;;;;14.27;11.63;;;8.10;62.60;;;;;;5082234;28;20236;-70
2022/03/02 11:01:49;;;;;;;12.33;9.47;;;8.10;59.80;;;;;;5083035;28;20207;-67
2022/03/02 11:04:18;;;;;;;13.70;10.60;;;8.20;58.40;;;;;;5096171;28;20537;-67
2022/03/02 11:06:44;;;;;;;15.40;11.27;;;7.90;57.10;;;;;;5092191;28;20211;-66
2022/03/02 11:09:10;;;;;;;14.20;10.00;;;7.80;56.70;;;;;;5086676;28;20209;-65
2022/03/02 11:11:36;;;;;;;17.30;10.53;;;7.60;58.20;;;;;;5096076;28;20904;-66
2022/03/02 11:14:03;;;;;;;17.20;11.13;;;7.70;56.90;;;;;;5089871;28;20224;-65
2022/03/02 11:16:29;;;;;;;10.83;8.83;;;7.40;57.40;;;;;;5102255;28;20196;-67
2022/03/02 11:18:55;;;;;;;14.47;9.17;;;7.30;54.80;;;;;;5093207;28;20221;-69
2022/03/02 11:21:31;;;;;;;14.20;10.13;;;7.40;55.90;;;;;;5098111;28;20189;-70
2022/03/02 11:24:02;;;;;;;16.17;10.20;;;7.50;56.60;;;;;;5088843;28;20237;-73
2022/03/02 11:26:30;;;;;;;17.50;11.77;;;7.70;56.90;;;;;;5094532;28;20197;-73
2022/03/02 11:28:58;;;;;;;12.10;10.30;;;7.50;55.80;;;;;;5085489;28;20213;-74
2022/03/02 11:31:29;;;;;;;16.23;11.43;;;7.80;56.20;;;;;;5086005;28;20406;-74
2022/03/02 11:34:29;;;;;;;19.00;10.97;;;7.70;56.70;;;;;;5093237;28;20206;-71
2022/03/02 11:37:04;;;;;;;18.37;11.60;;;8.00;55.50;;;;;;5054496;28;20197;-65
2022/03/02 11:39:30;;;;;;;16.63;11.60;;;8.20;55.10;;;;;;5098707;28;20624;-69
2022/03/02 11:42:01;;;;;;;15.07;11.30;;;8.60;56.30;;;;;;5099165;28;20205;-69
2022/03/02 11:44:42;;;;;;;15.67;9.63;;;8.90;53.40;;;;;;5094328;28;20209;-69
2022/03/02 11:47:10;;;;;;;13.73;9.30;;;9.30;52.80;;;;;;5090188;28;20223;-67
2022/03/02 11:49:44;;;;;;;14.17;9.90;;;9.40;50.60;;;;;;5094551;28;20207;-67
2022/03/02 11:52:12;;;;;;;18.33;11.97;;;9.70;49.20;;;;;;5084681;28;20192;-67
2022/03/02 11:54:53;;;;;;;19.00;12.27;;;10.00;50.50;;;;;;5096891;28;20192;-68
2022/03/02 11:57:20;;;;;;;20.43;12.63;;;10.50;52.80;;;;;;5102254;28;20190;-76
2022/03/02 11:59:47;;;;;;;16.53;11.67;;;10.80;49.90;;;;;;5094228;28;20249;-75
2022/03/02 12:02:14;;;;;;;13.10;9.83;;;11.00;48.40;;;;;;5095097;28;20256;-75
2022/03/02 12:04:40;;;;;;;13.57;9.83;;;10.90;45.60;;;;;;5096644;28;20183;-75
2022/03/02 12:07:08;;;;;;;16.37;9.93;;;11.30;44.90;;;;;;5094351;28;20214;-75
2022/03/02 12:09:38;;;;;;;15.17;9.90;;;11.90;46.10;;;;;;5097347;28;20304;-75
2022/03/02 12:12:21;;;;;;;16.80;11.17;;;11.90;44.70;;;;;;5087288;28;20230;-76
2022/03/02 12:15:05;;;;;;;16.50;12.90;;;12.30;45.00;;;;;;5097538;28;20415;-76
2022/03/02 12:17:33;;;;;;;16.77;12.43;;;13.00;47.40;;;;;;5077842;28;20187;-76
2022/03/02 12:20:02;;;;;;;20.70;14.10;;;13.20;45.50;;;;;;5097035;28;20320;-76
2022/03/02 12:22:33;;;;;;;18.30;12.83;;;13.50;45.40;;;;;;5092588;28;20518;-76
2022/03/02 12:24:59;;;;;;;17.90;13.37;;;13.90;45.30;;;;;;5099876;28;20217;-76
2022/03/02 12:27:25;;;;;;;20.00;14.47;;;13.80;42.00;;;;;;5085636;28;20360;-75
2022/03/02 12:30:03;;;;;;;16.80;12.37;;;13.80;43.40;;;;;;5086607;28;20499;-76
2022/03/02 12:32:30;;;;;;;18.27;13.03;;;14.10;43.50;;;;;;5090839;28;20199;-76
2022/03/02 12:34:57;;;;;;;18.97;13.30;;;14.10;43.00;;;;;;5084473;28;20210;-71
2022/03/02 12:37:23;;;;;;;16.67;11.83;;;14.10;43.30;;;;;;5093962;28;20318;-70
2022/03/02 12:39:51;;;;;;;18.80;12.70;;;14.10;43.00;;;;;;5105799;28;20198;-68